Historyczne dane pomiarowe

Dodano dane terminowe – wersja testowa.

Dane z okresu 1951-2019

Wersja bazy: 1.34 [2019-03-16, lista zmian], aktualizacja planowana na 2019-04-15

Dane meteo z obszaru Polski uzyskane na podstawie danych udostępnionych przez Instytut Meteorologii i Gospodarki Wodnej – Państwowy Instytut Badawczy.

 

Wybierz Datę:    

       

TemperaturaWilgotnośćWiatrCiśnienieOpadyŚniegCzas trwania zjawisk
 Stacja t tx tn tng RH VA  wxwx mslp ppp RRR   cm mm wxwxwxwxwxwxwx
2019-07-12 16.6 25.1 5.4- 59.5- 1.0 1.0---- 0.0------------
2019-07-11 15.0 19.7 10.4- 74.5- 4.0 2.0---- 0.0------------
2019-07-10 15.1 19.2 10.9- 77.3- 6.3 2.3---- 2.0------------
2019-07-09 15.2 19.7 9.2- 58.5- 5.3 3.0---- 2.4------------
2019-07-08 15.2 20.1 8.9- 57.0- 7.3 3.7---- 0.0------------
2019-07-07 20.2 25.2 14.4- 61.0- 4.3 2.3---- 0.0------------
2019-07-06 20.4 28.0 11.5- 61.3- 6.0 1.7---- 0.0------------
2019-07-05 17.3 23.7 8.4- 54.8- 6.7 2.3---- 0.0------------
2019-07-04 17.2 23.7 7.4- 49.0- 3.7 1.7---- 0.0------------
2019-07-03 17.8 24.5 8.9- 47.0- 1.7 2.3---- 0.0------------
2019-07-02 24.0 30.7 18.6- 58.5- 5.0 3.0---- 0.0------------
2019-07-01 27.5 37.2 15.9- 45.8- 2.7 2.3---- 0.1------------
2019-06-30 23.8 33.7 11.9- 57.0- 0.0 2.0---- 0.0------------
2019-06-29 20.3 27.3 9.2- 48.8- 1.3 2.0---- 0.0------------
2019-06-28 18.7 24.1 12.0- 54.3- 4.0 3.3---- 0.0------------
2019-06-27 24.9 30.8 20.9- 55.8- 1.0 4.7---- 0.0------------
2019-06-26 26.1 34.7 15.9- 63.5- 0.3 1.3---- 0.0------------
2019-06-25 24.3 31.3 14.4- 55.3- 0.0 2.0---- 0.0------------
2019-06-24 21.3 25.8 14.0- 68.3- 0.0 2.7---- 0.0------------
2019-06-23 21.1 27.2 15.2- 61.0- 3.0 3.0---- 0.0------------
2019-06-22 20.2 25.9 13.9- 79.8- 3.3 2.3---- 0.0------------
2019-06-21 21.0 28.2 16.1- 83.5- 4.3 1.3---- 0.1------------
2019-06-20 22.0 29.2 14.9- 72.5- 6.0 1.3---- 1.8------------
2019-06-19 22.2 29.9 15.1- 70.0- 3.3 1.7---- 0.0------------
2019-06-18 19.4 26.3 11.3- 73.8- 2.7 1.7---- 0.0------------
2019-06-17 19.1 21.5 16.2- 73.0- 6.3 2.3---- 0.2------------
2019-06-16 23.7 32.4 19.1- 63.3- 4.3 2.0---- 0.0------------
2019-06-15 26.3 33.9 17.0- 59.3- 0.7 1.3---- 0.0------------
2019-06-14 24.9 30.1 18.4- 69.8- 1.3 2.7---- 0.2------------
2019-06-13 24.9 32.4 15.3- 52.0- 1.3 1.7---- 0.0------------
2019-06-12 24.8 32.1 15.4- 50.3- 0.0 2.0---- 0.0------------
2019-06-11 24.4 31.8 15.1- 57.0- 1.3 2.3---- 0.1------------
2019-06-10 23.0 30.2 13.9- 67.5- 0.0 2.7---- 0.0------------
2019-06-09 20.3 26.2 14.5- 61.8- 0.3 1.7---- 0.0------------
2019-06-08 22.2 29.5 12.4- 67.5- 2.0 1.3---- 0.0------------
2019-06-07 19.8 27.5 11.7- 66.5- 1.0 1.7---- 0.0------------
2019-06-06 18.9 25.7 12.4- 84.5- 4.0 1.0---- 2.2------------
2019-06-05 20.3 26.4 12.7- 66.8- 1.3 3.0---- 0.0------------
2019-06-04 21.5 27.9 12.3- 64.3- 2.3 2.3---- 0.0------------
2019-06-03 20.0 27.2 10.4- 63.5- 0.0 2.0---- 0.0------------
2019-06-02 18.3 26.2 9.9- 68.5- 2.7 2.0---- 0.0------------
2019-06-01 17.8 24.2 8.0- 76.0- 2.0 2.3---- 0.0------------
2019-05-31 15.5 21.8 9.4- 78.3- 3.3 1.3---- 0.0------------
2019-05-30 12.1 15.4 9.6- 88.8- 8.0 2.3---- 3.9------------
2019-05-29 15.0 21.5 10.6- 82.8- 7.7 2.0---- 0.2------------
2019-05-28 20.0 24.0 14.9- 72.8- 3.0 2.7---- 0.0------------
2019-05-27 19.3 26.3 12.1- 61.0- 5.7 1.7---- 0.5------------
2019-05-26 17.3 23.2 8.9- 74.3- 4.0 1.7---- 0.0------------
2019-05-25 17.2 22.5 11.9- 67.0- 4.0 2.3---- 0.0------------
2019-05-24 14.9 17.7 12.4- 93.5- 8.0 2.3---- 1.3------------
2019-05-23 14.7 18.7 10.8- 91.8- 8.0 1.7---- 17.5------------
2019-05-22 14.3 16.7 11.4- 94.8- 7.0 1.7---- 1.7------------
2019-05-21 14.6 19.6 10.8- 94.8- 8.0 3.3----100.2------------
2019-05-20 18.5 21.8 12.4- 69.0- 4.0 3.0---- 0.1------------
2019-05-19 18.4 23.7 13.4- 76.0- 3.0 2.0---- 2.8------------
2019-05-18 18.1 24.5 10.5- 73.8- 3.3 1.0---- 0.0------------
2019-05-17 16.6 22.6 12.4- 83.3- 5.0 1.7---- 2.7------------
2019-05-16 13.8 17.9 9.6- 78.0- 6.3 2.0---- 3.2------------
2019-05-15 10.0 12.6 5.9- 96.0- 8.0 3.3---- 1.5------------
2019-05-14 6.5 8.9 3.8- 94.3- 8.0 2.7---- 7.1------------
132.9 ms

 

Źródłem pochodzenia danych jest Instytut Meteorologii i Gospodarki Wodnej – Państwowy Instytut Badawczy. Dane Instytutu Meteorologii i Gospodarki Wodnej – Państwowego Instytutu Badawczego zostały przetworzone.

Dane źródłowe można odnaleźć na stronie https://dane.imgw.pl